createdAt,value
2023-04-02T00:00:18.242Z,1.58
2023-04-02T00:03:22.371Z,1.30
2023-04-02T00:06:33.158Z,1.30
2023-04-02T00:09:39.278Z,1.55
2023-04-02T00:13:04.750Z,1.40
2023-04-02T00:16:12.337Z,1.50
2023-04-02T00:19:32.237Z,1.40
2023-04-02T00:22:35.211Z,1.50
2023-04-02T00:25:43.204Z,1.58
2023-04-02T00:28:46.061Z,1.60
2023-04-02T00:31:51.617Z,1.60
2023-04-02T00:34:55.762Z,1.55
2023-04-02T00:37:58.702Z,1.60
2023-04-02T00:41:07.558Z,1.52
2023-04-02T00:44:21.997Z,1.60
2023-04-02T00:47:27.109Z,1.70
2023-04-02T00:53:46.680Z,1.60
2023-04-02T00:56:54.528Z,1.65
2023-04-02T01:00:08.902Z,1.60
2023-04-02T01:03:17.728Z,1.63
2023-04-02T01:06:22.242Z,1.55
2023-04-02T01:09:30.356Z,1.50
2023-04-02T01:12:54.172Z,1.50
2023-04-02T01:16:36.863Z,1.55
2023-04-02T01:20:01.108Z,1.58
2023-04-02T01:23:25.689Z,1.40
2023-04-02T01:26:33.949Z,1.60
2023-04-02T01:29:40.412Z,1.67
2023-04-02T01:32:43.927Z,1.70
2023-04-02T01:35:55.483Z,1.55
2023-04-02T01:39:20.792Z,1.60
2023-04-02T01:42:33.380Z,2.00
2023-04-02T01:45:37.769Z,1.45
2023-04-02T01:48:41.378Z,1.60
2023-04-02T01:51:47.055Z,1.60
2023-04-02T01:54:52.886Z,1.73
2023-04-02T01:57:56.686Z,1.80
2023-04-02T02:01:04.187Z,1.73
2023-04-02T02:04:12.750Z,1.50
2023-04-02T02:07:18.645Z,1.55
2023-04-02T02:10:43.561Z,1.60
2023-04-02T02:13:55.270Z,1.60
2023-04-02T02:20:11.389Z,1.60
2023-04-02T02:23:14.698Z,1.70
2023-04-02T02:26:18.735Z,1.50
2023-04-02T02:29:23.573Z,1.60
2023-04-02T02:32:29.909Z,1.60
2023-04-02T02:36:27.288Z,1.52
2023-04-02T02:39:38.204Z,1.70
2023-04-02T02:42:48.286Z,1.58
2023-04-02T02:45:54.059Z,1.52
2023-04-02T02:48:58.805Z,1.50
2023-04-02T02:52:10.689Z,1.58
2023-04-02T02:55:38.108Z,1.50
2023-04-02T02:58:53.770Z,1.63
2023-04-02T03:02:02.209Z,1.80
2023-04-02T03:05:05.790Z,1.60
2023-04-02T03:08:19.441Z,1.65
2023-04-02T03:11:27.014Z,1.80
2023-04-02T03:14:35.576Z,1.70
2023-04-02T03:17:53.350Z,1.80
2023-04-02T03:21:00.987Z,1.67
2023-04-02T03:24:12.378Z,1.50
2023-04-02T03:27:18.405Z,1.60
2023-04-02T03:30:47.140Z,1.90
2023-04-02T03:37:47.295Z,1.70
2023-04-02T03:41:03.584Z,1.70
2023-04-02T03:44:22.152Z,1.90
2023-04-02T03:47:38.883Z,1.75
2023-04-02T03:50:59.077Z,1.60
2023-04-02T03:54:02.645Z,1.73
2023-04-02T03:57:15.893Z,1.60
2023-04-02T04:00:34.378Z,1.80
2023-04-02T04:03:42.442Z,1.75
2023-04-02T04:06:52.497Z,1.60
2023-04-02T04:09:56.377Z,1.67
2023-04-02T04:13:12.551Z,1.73
2023-04-02T04:16:22.646Z,1.90
2023-04-02T04:19:38.308Z,1.75
2023-04-02T04:22:41.601Z,1.73
2023-04-02T04:26:24.700Z,1.92
2023-04-02T04:29:45.529Z,1.58
2023-04-02T04:33:05.162Z,2.10
2023-04-02T04:36:28.738Z,1.75
2023-04-02T04:40:22.568Z,1.63
2023-04-02T04:43:58.014Z,1.98
2023-04-02T04:47:31.204Z,1.80
2023-04-02T04:50:46.688Z,1.80
2023-04-02T04:53:53.710Z,2.10
2023-04-02T04:57:02.850Z,2.92
2023-04-02T05:00:17.456Z,2.20
2023-04-02T05:03:31.703Z,2.05
2023-04-02T05:06:45.627Z,2.03
2023-04-02T05:10:09.618Z,2.08
2023-04-02T05:13:41.628Z,2.15
2023-04-02T05:17:07.189Z,2.00
2023-04-02T05:20:21.416Z,2.30
2023-04-02T05:24:02.659Z,2.10
2023-04-02T05:27:15.767Z,2.42
2023-04-02T05:30:46.753Z,2.20
2023-04-02T05:33:51.259Z,2.45
2023-04-02T05:36:55.756Z,2.00
2023-04-02T05:40:06.757Z,2.10
2023-04-02T05:43:15.576Z,2.53
2023-04-02T05:46:27.373Z,2.60
2023-04-02T05:49:54.790Z,2.28
2023-04-02T05:53:09.798Z,2.10
2023-04-02T05:56:25.227Z,2.15
2023-04-02T05:59:44.806Z,2.50
2023-04-02T06:03:07.636Z,2.50
2023-04-02T06:06:19.256Z,2.55
2023-04-02T06:09:28.118Z,2.00
2023-04-02T06:12:31.127Z,2.72
2023-04-02T06:15:37.285Z,3.28
2023-04-02T06:18:47.402Z,2.05
2023-04-02T06:21:53.224Z,2.70
2023-04-02T06:25:05.049Z,2.10
2023-04-02T06:28:19.599Z,2.03
2023-04-02T06:31:52.463Z,2.50
2023-04-02T06:34:57.194Z,2.30
2023-04-02T06:38:02.654Z,2.40
2023-04-02T06:41:19.733Z,2.15
2023-04-02T06:44:46.744Z,2.50
2023-04-02T06:48:04.438Z,2.42
2023-04-02T06:51:21.249Z,3.17
2023-04-02T06:54:24.518Z,2.55
2023-04-02T06:57:35.792Z,2.42
2023-04-02T07:00:43.173Z,2.50
2023-04-02T07:03:50.594Z,2.47
2023-04-02T07:07:10.946Z,2.50
2023-04-02T07:10:19.614Z,2.42
2023-04-02T07:13:24.534Z,2.45
2023-04-02T07:16:31.061Z,2.22
2023-04-02T07:19:34.023Z,2.40
2023-04-02T07:22:37.037Z,2.33
2023-04-02T07:25:40.195Z,3.30
2023-04-02T07:28:43.481Z,2.53
2023-04-02T07:31:46.558Z,2.40
2023-04-02T07:34:49.246Z,2.20
2023-04-02T07:37:52.979Z,2.42
2023-04-02T07:40:55.900Z,2.55
2023-04-02T07:43:58.876Z,2.78
2023-04-02T07:47:01.711Z,2.30
2023-04-02T07:50:05.269Z,2.20
2023-04-02T07:53:09.711Z,2.55
2023-04-02T07:56:15.416Z,2.45
2023-04-02T07:59:18.130Z,2.60
2023-04-02T08:02:22.060Z,2.63
2023-04-02T08:05:24.788Z,2.42
2023-04-02T08:08:27.497Z,2.65
2023-04-02T08:11:31.787Z,2.60
2023-04-02T08:14:34.556Z,2.60
2023-04-02T08:17:37.370Z,2.42
2023-04-02T08:20:40.170Z,2.55
2023-04-02T08:23:44.058Z,2.90
2023-04-02T08:26:47.958Z,3.40
2023-04-02T08:29:51.316Z,2.90
2023-04-02T08:32:54.033Z,2.78
2023-04-02T08:35:56.828Z,3.28
2023-04-02T08:38:59.481Z,9.25
2023-04-02T08:42:21.519Z,5.47
2023-04-02T08:45:33.518Z,2.85
2023-04-02T08:48:40.791Z,3.42
2023-04-02T08:51:46.359Z,2.83
2023-04-02T08:54:50.326Z,3.10
2023-04-02T08:58:22.931Z,3.10
2023-04-02T09:02:02.870Z,2.85
2023-04-02T09:05:08.245Z,3.20
2023-04-02T09:08:26.034Z,2.90
2023-04-02T09:11:31.776Z,3.08
2023-04-02T09:15:11.665Z,2.65
2023-04-02T09:18:17.000Z,2.67
2023-04-02T09:21:19.813Z,2.70
2023-04-02T09:24:22.909Z,2.70
2023-04-02T09:27:29.882Z,2.50
2023-04-02T09:30:32.408Z,2.90
2023-04-02T09:33:49.325Z,3.10
2023-04-02T09:36:52.175Z,3.13
2023-04-02T09:40:19.783Z,2.92
2023-04-02T09:43:34.510Z,3.10
2023-04-02T09:46:37.217Z,2.97
2023-04-02T09:49:40.862Z,2.65
2023-04-02T09:52:43.933Z,3.15
2023-04-02T09:55:47.060Z,2.90
2023-04-02T09:59:17.022Z,3.08
2023-04-02T10:02:28.572Z,3.00
2023-04-02T10:05:40.489Z,3.08
2023-04-02T10:08:45.638Z,2.90
2023-04-02T10:11:49.891Z,3.10
2023-04-02T10:18:13.570Z,11.52
2023-04-02T10:21:25.331Z,2.67
2023-04-02T10:24:29.270Z,3.05
2023-04-02T10:27:45.928Z,2.92
2023-04-02T10:31:03.500Z,3.05
2023-04-02T10:34:18.091Z,3.28
2023-04-02T10:37:32.922Z,2.90
2023-04-02T10:40:38.690Z,3.28
2023-04-02T10:43:50.531Z,3.00
2023-04-02T10:47:22.844Z,3.40
2023-04-02T10:50:44.760Z,3.20
2023-04-02T10:53:47.537Z,2.97
2023-04-02T10:56:55.902Z,3.20
2023-04-02T11:00:25.261Z,3.50
2023-04-02T11:03:41.698Z,3.30
2023-04-02T11:06:58.071Z,2.97
2023-04-02T11:10:06.959Z,3.22
2023-04-02T11:13:21.279Z,3.38
2023-04-02T11:16:24.173Z,3.40
2023-04-02T11:19:27.144Z,3.97
2023-04-02T11:22:29.912Z,3.03
2023-04-02T11:25:32.653Z,3.00
2023-04-02T11:28:35.485Z,2.65
2023-04-02T11:31:38.434Z,2.50
2023-04-02T11:34:41.553Z,2.45
2023-04-02T11:37:45.948Z,2.40
2023-04-02T11:40:56.495Z,2.75
2023-04-02T11:44:03.035Z,2.97
2023-04-02T11:47:25.829Z,2.22
2023-04-02T11:50:35.500Z,2.25
2023-04-02T11:53:42.941Z,10.57
2023-04-02T11:56:53.171Z,2.65
2023-04-02T12:00:08.779Z,2.30
2023-04-02T12:03:47.518Z,2.25
2023-04-02T12:07:26.828Z,2.30
2023-04-02T12:10:34.526Z,2.00
2023-04-02T12:13:40.653Z,2.38
2023-04-02T12:16:44.439Z,2.08
2023-04-02T12:19:53.158Z,1.90
2023-04-02T12:22:57.788Z,2.03
2023-04-02T12:26:09.135Z,2.40
2023-04-02T12:29:25.034Z,2.03
2023-04-02T12:32:32.296Z,1.98
2023-04-02T12:35:36.668Z,1.90
2023-04-02T12:38:52.018Z,1.75
2023-04-02T12:41:57.392Z,2.10
2023-04-02T12:45:00.880Z,2.40
2023-04-02T12:48:06.219Z,2.10
2023-04-02T12:51:11.324Z,2.03
2023-04-02T12:54:18.565Z,2.08
2023-04-02T12:57:27.182Z,2.50
2023-04-02T13:00:32.088Z,2.50
2023-04-02T13:03:36.092Z,2.55
2023-04-02T13:06:48.082Z,2.65
2023-04-02T13:09:52.664Z,2.63
2023-04-02T13:12:58.418Z,2.70
2023-04-02T13:16:21.010Z,2.42
2023-04-02T13:19:28.745Z,2.10
2023-04-02T13:22:32.110Z,2.50
2023-04-02T13:28:40.312Z,2.35
2023-04-02T13:31:45.516Z,2.22
2023-04-02T13:34:48.204Z,2.35
2023-04-02T13:37:51.726Z,2.33
2023-04-02T13:40:55.510Z,2.40
2023-04-02T13:44:01.942Z,1.90
2023-04-02T13:47:05.143Z,2.00
2023-04-02T13:50:13.313Z,2.00
2023-04-02T13:53:31.134Z,2.55
2023-04-02T13:56:35.788Z,1.83
2023-04-02T13:59:38.540Z,1.75
2023-04-02T14:02:47.560Z,1.50
2023-04-02T14:06:28.100Z,1.80
2023-04-02T14:10:00.941Z,1.70
2023-04-02T14:13:46.787Z,1.80
2023-04-02T14:17:09.456Z,1.80
2023-04-02T14:20:24.546Z,1.70
2023-04-02T14:23:44.465Z,1.85
2023-04-02T14:26:50.070Z,2.10
2023-04-02T14:30:03.745Z,1.90
2023-04-02T14:33:21.456Z,2.28
2023-04-02T14:36:58.003Z,2.17
2023-04-02T14:40:21.974Z,2.42
2023-04-02T14:43:45.589Z,2.67
2023-04-02T14:46:53.746Z,3.40
2023-04-02T14:50:04.028Z,3.33
2023-04-02T14:53:18.977Z,2.63
2023-04-02T14:56:24.786Z,2.67
2023-04-02T14:59:34.484Z,3.05
2023-04-02T15:02:37.629Z,2.78
2023-04-02T15:05:47.336Z,2.50
2023-04-02T15:09:13.879Z,2.45
2023-04-02T15:12:26.270Z,2.90
2023-04-02T15:16:10.897Z,2.80
2023-04-02T15:19:17.981Z,3.03
2023-04-02T15:22:36.411Z,3.10
2023-04-02T15:25:52.004Z,3.10
2023-04-02T15:29:02.947Z,2.08
2023-04-02T15:32:38.283Z,2.33
2023-04-02T15:35:54.353Z,2.17
2023-04-02T15:39:33.132Z,2.17
2023-04-02T15:42:43.698Z,2.40
2023-04-02T15:46:06.124Z,2.35
2023-04-02T15:49:38.247Z,2.42
2023-04-02T15:53:07.127Z,2.83
2023-04-02T15:56:19.008Z,2.90
2023-04-02T16:00:06.769Z,2.40
2023-04-02T16:03:37.115Z,2.47
2023-04-02T16:07:11.176Z,2.33
2023-04-02T16:10:41.868Z,2.70
2023-04-02T16:13:47.736Z,2.97
2023-04-02T16:16:53.136Z,2.65
2023-04-02T16:20:25.081Z,2.88
2023-04-02T16:23:41.080Z,2.90
2023-04-02T16:26:57.932Z,2.72
2023-04-02T16:30:16.976Z,2.90
2023-04-02T16:33:41.690Z,3.15
2023-04-02T16:36:51.720Z,3.50
2023-04-02T16:40:27.548Z,6.47
2023-04-02T16:43:52.499Z,3.70
2023-04-02T16:47:33.682Z,4.80
2023-04-02T16:50:48.029Z,3.80
2023-04-02T16:54:06.369Z,5.40
2023-04-02T16:57:32.206Z,6.28
2023-04-02T17:00:46.067Z,2.90
2023-04-02T17:04:18.780Z,3.17
2023-04-02T17:07:50.872Z,3.33
2023-04-02T17:11:09.466Z,5.85
2023-04-02T17:14:25.085Z,3.60
2023-04-02T17:17:29.403Z,3.63
2023-04-02T17:20:33.966Z,2.88
2023-04-02T17:24:14.799Z,2.65
2023-04-02T17:27:22.918Z,2.90
2023-04-02T17:30:32.274Z,2.15
2023-04-02T17:33:35.928Z,2.67
2023-04-02T17:36:52.716Z,2.80
2023-04-02T17:40:32.717Z,2.63
2023-04-02T17:43:45.214Z,2.53
2023-04-02T17:46:48.696Z,2.22
2023-04-02T17:50:10.347Z,2.65
2023-04-02T17:53:29.312Z,2.65
2023-04-02T17:57:09.791Z,2.95
2023-04-02T18:00:26.253Z,3.50
2023-04-02T18:07:36.112Z,3.65
2023-04-02T18:10:54.673Z,3.35
2023-04-02T18:14:07.295Z,3.60
2023-04-02T18:17:42.466Z,3.63
2023-04-02T18:21:15.436Z,3.97
2023-04-02T18:24:55.607Z,3.78
2023-04-02T18:28:19.233Z,3.80
2023-04-02T18:31:50.935Z,3.40
2023-04-02T18:35:23.340Z,4.50
2023-04-02T18:38:29.970Z,3.95
2023-04-02T18:42:01.118Z,4.20
2023-04-02T18:45:50.102Z,4.05
2023-04-02T18:49:31.407Z,4.38
2023-04-02T18:52:35.858Z,4.50
2023-04-02T18:55:46.637Z,4.50
2023-04-02T18:59:32.316Z,4.63
2023-04-02T19:02:57.129Z,4.60
2023-04-02T19:09:39.081Z,4.43
2023-04-02T19:12:42.962Z,4.50
2023-04-02T19:16:01.392Z,4.80
2023-04-02T19:19:14.119Z,4.30
2023-04-02T19:22:50.397Z,4.68
2023-04-02T19:26:10.532Z,4.50
2023-04-02T19:29:32.933Z,4.50
2023-04-02T19:33:11.056Z,9.35
2023-04-02T19:36:32.686Z,4.82
2023-04-02T19:39:48.514Z,4.28
2023-04-02T19:42:55.429Z,4.28
2023-04-02T19:46:02.993Z,4.45
2023-04-02T19:49:34.274Z,4.35
2023-04-02T19:52:40.287Z,4.00
2023-04-02T19:55:45.039Z,3.83
2023-04-02T20:01:54.108Z,4.10
2023-04-02T20:04:57.801Z,4.20
2023-04-02T20:08:01.528Z,4.32
2023-04-02T20:11:06.543Z,4.13
2023-04-02T20:14:17.539Z,3.92
2023-04-02T20:17:21.529Z,4.05
2023-04-02T20:20:24.599Z,3.63
2023-04-02T20:23:28.587Z,4.20
2023-04-02T20:26:32.505Z,3.70
2023-04-02T20:29:36.233Z,3.85
2023-04-02T20:32:39.572Z,3.45
2023-04-02T20:35:42.681Z,4.30
2023-04-02T20:38:45.960Z,3.40
2023-04-02T20:41:49.000Z,3.70
2023-04-02T20:44:52.243Z,3.65
2023-04-02T20:47:57.595Z,4.05
2023-04-02T20:55:16.582Z,3.72
2023-04-02T20:58:19.619Z,3.83
2023-04-02T21:01:23.825Z,3.92
2023-04-02T21:04:28.207Z,3.85
2023-04-02T21:07:31.192Z,3.95
2023-04-02T21:10:33.955Z,3.75
2023-04-02T21:13:37.778Z,3.85
2023-04-02T21:16:41.692Z,3.22
2023-04-02T21:19:44.283Z,4.10
2023-04-02T21:22:46.806Z,3.85
2023-04-02T21:26:00.959Z,3.80
2023-04-02T21:29:05.794Z,3.55
2023-04-02T21:32:18.519Z,4.03
2023-04-02T21:35:24.051Z,3.70
2023-04-02T21:38:26.664Z,7.07
2023-04-02T21:41:36.080Z,3.63
2023-04-02T21:44:40.063Z,3.38
2023-04-02T21:47:42.740Z,3.30
2023-04-02T21:50:45.389Z,3.67
2023-04-02T21:53:48.090Z,3.95
2023-04-02T21:56:50.722Z,3.95
2023-04-02T21:59:56.975Z,3.95
2023-04-02T22:02:59.737Z,4.18
2023-04-02T22:06:05.029Z,4.20
2023-04-02T22:09:11.494Z,4.50
2023-04-02T22:12:14.374Z,4.70
2023-04-02T22:15:17.157Z,4.57
2023-04-02T22:18:19.794Z,4.40
2023-04-02T22:21:23.103Z,4.53
2023-04-02T22:24:25.716Z,4.75
2023-04-02T22:27:29.382Z,4.43
2023-04-02T22:30:34.126Z,4.75
2023-04-02T22:33:37.198Z,4.63
2023-04-02T22:36:39.780Z,4.45
2023-04-02T22:39:42.318Z,4.55
2023-04-02T22:42:47.357Z,4.43
2023-04-02T22:45:51.221Z,4.45
2023-04-02T22:48:53.868Z,4.65
2023-04-02T22:51:56.445Z,4.32
2023-04-02T22:54:59.365Z,4.22
2023-04-02T22:58:01.859Z,4.72
2023-04-02T23:01:12.273Z,4.82
2023-04-02T23:04:14.909Z,4.70
2023-04-02T23:07:17.626Z,4.82
2023-04-02T23:10:20.458Z,4.20
2023-04-02T23:13:23.260Z,4.70
2023-04-02T23:16:27.927Z,4.95
2023-04-02T23:19:30.580Z,4.43
2023-04-02T23:22:33.149Z,4.75
2023-04-02T23:25:38.297Z,4.10
2023-04-02T23:28:41.264Z,4.80
2023-04-02T23:31:43.802Z,5.97
2023-04-02T23:34:46.411Z,6.00
2023-04-02T23:37:49.810Z,5.50
2023-04-02T23:40:53.606Z,4.57
2023-04-02T23:43:57.645Z,4.75
2023-04-02T23:47:01.729Z,4.70
2023-04-02T23:50:04.675Z,5.47
2023-04-02T23:53:07.331Z,8.13
2023-04-02T23:56:10.430Z,5.07
2023-04-02T23:59:12.995Z,5.30
